Time;durP1;ratioP1;P1;durP2;ratioP2;P2;SDS_P1;SDS_P2;PMS_P1;PMS_P2;Temp;Humidity;BMP_temperature;BMP_pressure;BME280_temperature;BME280_humidity;BME280_pressure;Samples;Min_cycle;Max_cycle;Signal;HPM_P1;HPM_P2
2022/01/20 00:00:17;;;;;;;0.70;0.70;;;;;;;5.18;70.30;100699.91;680919;28;161630;-67
2022/01/20 00:00:44;;;;;;;0.70;0.70;;;;;;;5.17;70.18;100698.19;682720;28;115687;-66
2022/01/20 00:01:20;;;;;;;0.70;0.70;;;;;;;5.15;69.80;100692.16;682204;28;137628;-66
2022/01/20 00:01:45;;;;;;;0.60;0.60;;;;;;;5.17;70.19;100692.84;680112;28;159055;-67
2022/01/20 00:02:06;;;;;;;0.70;0.70;;;;;;;5.16;69.76;100692.00;682705;28;115092;-66
2022/01/20 00:02:31;;;;;;;0.80;0.80;;;;;;;5.16;69.50;100693.84;682776;28;21366;-67
2022/01/20 00:02:57;;;;;;;0.70;0.70;;;;;;;5.14;69.92;100699.34;680140;28;113808;-66
2022/01/20 00:03:21;;;;;;;0.60;0.60;;;;;;;5.13;69.67;100694.97;678982;28;136499;-67
2022/01/20 00:03:43;;;;;;;0.60;0.60;;;;;;;5.14;69.75;100698.50;680527;28;92362;-67
2022/01/20 00:04:14;;;;;;;0.60;0.60;;;;;;;5.14;69.63;100693.13;682774;28;46165;-67
2022/01/20 00:04:42;;;;;;;0.70;0.70;;;;;;;5.11;69.61;100690.75;682028;28;137554;-67
2022/01/20 00:05:11;;;;;;;0.85;0.85;;;;;;;5.12;69.85;100687.91;682201;28;137856;-66
2022/01/20 00:05:52;;;;;;;0.65;0.65;;;;;;;5.11;69.64;100694.28;681909;28;137762;-66
2022/01/20 00:07:43;;;;;;;0.80;0.80;;;;;;;5.06;69.89;100688.50;681184;28;135901;-67
2022/01/20 00:08:15;;;;;;;0.70;0.70;;;;;;;5.08;70.00;100697.25;682131;28;137825;-67
2022/01/20 00:08:51;;;;;;;0.60;0.60;;;;;;;5.08;69.92;100693.69;682038;28;137513;-68
2022/01/20 00:09:26;;;;;;;0.57;0.57;;;;;;;5.07;69.58;100682.16;680792;28;136747;-66
2022/01/20 00:23:14;;;;;;;0.63;0.63;;;;;;;5.02;69.22;100679.91;678472;28;137452;-66
2022/01/20 00:25:45;;;;;;;0.60;0.60;;;;;;;5.01;69.39;100682.72;681589;28;137639;-67
2022/01/20 00:26:16;;;;;;;0.70;0.70;;;;;;;5.00;69.55;100678.34;681135;28;137449;-66
2022/01/20 00:26:46;;;;;;;0.80;0.80;;;;;;;5.01;69.67;100672.84;682178;28;138107;-66
2022/01/20 00:27:10;;;;;;;0.80;0.80;;;;;;;4.98;69.51;100670.47;677798;28;137594;-69
2022/01/20 00:27:35;;;;;;;0.60;0.60;;;;;;;4.98;69.38;100678.50;677438;29;90513;-67
2022/01/20 00:28:09;;;;;;;0.63;0.63;;;;;;;4.98;69.59;100677.66;675523;29;139195;-67
2022/01/20 00:28:40;;;;;;;0.80;0.80;;;;;;;4.99;69.36;100676.69;676484;29;137615;-67
2022/01/20 00:29:03;;;;;;;0.70;0.70;;;;;;;4.97;69.38;100675.97;676730;28;136021;-66
2022/01/20 00:29:28;;;;;;;0.70;0.70;;;;;;;4.96;69.43;100687.66;682740;28;69672;-67
2022/01/20 00:30:18;;;;;;;0.70;0.70;;;;;;;4.96;69.50;100676.97;682289;28;113864;-66
2022/01/20 00:30:45;;;;;;;0.60;0.60;;;;;;;4.95;69.52;100683.28;680857;28;158885;-67
2022/01/20 00:31:25;;;;;;;0.70;0.70;;;;;;;4.92;69.78;100675.53;681031;28;138018;-66
2022/01/20 00:32:01;;;;;;;0.70;0.70;;;;;;;4.94;69.57;100677.09;680610;28;136017;-67
2022/01/20 00:32:30;;;;;;;0.70;0.70;;;;;;;4.95;69.93;100685.97;681393;28;137791;-66
2022/01/20 00:32:58;;;;;;;0.50;0.50;;;;;;;4.97;69.95;100683.97;681382;28;138733;-67
2022/01/20 00:33:32;;;;;;;0.80;0.80;;;;;;;4.97;69.88;100679.50;681535;28;138042;-67
2022/01/20 00:34:07;;;;;;;0.75;0.75;;;;;;;4.98;69.70;100677.66;681820;28;139026;-67
2022/01/20 00:34:53;;;;;;;0.70;0.70;;;;;;;4.98;69.68;100683.84;681285;28;137855;-66
2022/01/20 00:35:20;;;;;;;0.50;0.50;;;;;;;4.99;69.86;100685.53;681489;28;136207;-66
2022/01/20 00:37:16;;;;;;;0.60;0.60;;;;;;;5.01;69.97;100688.06;675058;29;157498;-66
2022/01/20 00:37:39;;;;;;;0.60;0.60;;;;;;;4.99;70.10;100682.03;678824;28;137775;-64
2022/01/20 00:38:00;;;;;;;0.80;0.80;;;;;;;4.99;70.04;100677.50;682273;28;36821;-66
2022/01/20 00:38:21;;;;;;;0.80;0.80;;;;;;;5.02;70.12;100685.25;682822;28;23650;-66
2022/01/20 00:38:43;;;;;;;0.70;0.70;;;;;;;5.00;70.13;100679.22;681947;28;44264;-65
2022/01/20 00:39:05;;;;;;;0.70;0.70;;;;;;;5.01;70.13;100685.41;682023;28;46333;-66
2022/01/20 00:39:29;;;;;;;0.60;0.60;;;;;;;5.00;70.13;100684.56;681578;28;46280;-65
2022/01/20 00:39:50;;;;;;;0.60;0.60;;;;;;;5.01;70.48;100680.03;681387;28;69480;-65
2022/01/20 00:40:11;;;;;;;0.60;0.60;;;;;;;5.02;70.36;100690.63;682493;28;22417;-66
2022/01/20 00:40:33;;;;;;;0.80;0.80;;;;;;;5.03;70.50;100689.63;679112;29;44378;-65
2022/01/20 00:40:55;;;;;;;0.68;0.68;;;;;;;5.03;70.52;100688.78;679539;29;46523;-66
2022/01/20 00:41:16;;;;;;;0.60;0.60;;;;;;;5.01;70.32;100694.25;680261;28;45370;-64
2022/01/20 00:41:38;;;;;;;0.60;0.60;;;;;;;5.01;70.31;100698.78;681802;28;22492;-64
2022/01/20 00:41:59;;;;;;;0.60;0.60;;;;;;;5.02;70.58;100684.44;679891;29;19784;-65
2022/01/20 00:42:21;;;;;;;0.50;0.50;;;;;;;4.99;70.47;100693.56;679021;29;45370;-66
2022/01/20 00:42:42;;;;;;;0.68;0.68;;;;;;;5.00;70.61;100684.56;679448;29;41763;-65
2022/01/20 00:43:04;;;;;;;0.70;0.70;;;;;;;5.01;70.69;100688.06;680405;29;22241;-66
2022/01/20 00:43:25;;;;;;;0.60;0.60;;;;;;;4.99;70.70;100696.25;681038;29;19200;-66
2022/01/20 00:43:46;;;;;;;0.60;0.60;;;;;;;5.00;70.84;100697.09;681806;28;22392;-66
2022/01/20 00:44:07;;;;;;;0.60;0.60;;;;;;;5.03;70.60;100694.13;685251;28;2000;-66
2022/01/20 00:44:31;;;;;;;0.50;0.50;;;;;;;5.04;70.49;100695.81;684398;28;46399;-66
2022/01/20 00:44:53;;;;;;;0.60;0.60;;;;;;;5.03;70.81;100700.34;686316;28;1685;-65
2022/01/20 00:45:15;;;;;;;0.80;0.80;;;;;;;5.04;70.50;100699.34;684496;28;46431;-66
2022/01/20 00:45:36;;;;;;;0.70;0.70;;;;;;;5.04;70.44;100690.47;684750;28;22412;-65
2022/01/20 00:45:58;;;;;;;0.70;0.70;;;;;;;5.05;70.67;100702.88;685495;28;22523;-65
2022/01/20 00:46:19;;;;;;;0.60;0.60;;;;;;;5.05;70.81;100701.03;684248;28;47268;-65
2022/01/20 00:46:40;;;;;;;0.60;0.60;;;;;;;5.04;70.63;100699.34;681953;28;20833;-65
2022/01/20 00:47:01;;;;;;;0.50;0.50;;;;;;;5.05;70.73;100687.66;679823;29;22484;-65
2022/01/20 00:47:23;;;;;;;0.60;0.60;;;;;;;5.06;71.12;100693.84;679584;29;1086;-65
2022/01/20 00:47:44;;;;;;;0.77;0.77;;;;;;;5.07;70.65;100692.88;677190;29;44385;-66
2022/01/20 00:48:06;;;;;;;0.80;0.80;;;;;;;5.08;70.64;100699.06;677951;29;46379;-65
2022/01/20 00:48:28;;;;;;;0.70;0.70;;;;;;;5.10;70.59;100694.44;679547;29;987;-65
2022/01/20 00:48:50;;;;;;;0.63;0.63;;;;;;;5.11;70.77;100698.78;681639;28;23502;-66
2022/01/20 00:49:11;;;;;;;0.60;0.60;;;;;;;5.12;70.50;100698.63;683485;28;22393;-65
2022/01/20 00:49:33;;;;;;;0.50;0.50;;;;;;;5.10;70.65;100686.41;685144;28;21539;-65
2022/01/20 00:49:54;;;;;;;0.70;0.70;;;;;;;5.09;70.91;100695.41;685260;28;44401;-65
2022/01/20 00:50:15;;;;;;;0.80;0.80;;;;;;;5.10;70.64;100689.06;684643;28;22403;-65
2022/01/20 00:50:38;;;;;;;0.70;0.70;;;;;;;5.15;70.73;100695.66;685603;28;21495;-65
2022/01/20 00:51:00;;;;;;;0.70;0.70;;;;;;;5.15;70.51;100689.47;682048;28;92184;-65
2022/01/20 00:51:23;;;;;;;0.60;0.60;;;;;;;5.15;70.63;100697.50;685716;28;12120;-65
2022/01/20 00:51:46;;;;;;;0.50;0.50;;;;;;;5.12;70.68;100690.59;683218;28;69773;-66
2022/01/20 00:52:08;;;;;;;0.70;0.70;;;;;;;5.12;70.75;100687.09;683697;28;69487;-65
2022/01/20 00:52:29;;;;;;;0.70;0.70;;;;;;;5.11;70.67;100682.72;682075;28;46978;-66
2022/01/20 00:52:51;;;;;;;0.70;0.70;;;;;;;5.11;70.91;100685.38;681395;28;43642;-66
2022/01/20 00:53:12;;;;;;;0.73;0.73;;;;;;;5.10;70.71;100683.72;682491;28;23527;-65
2022/01/20 00:53:34;;;;;;;0.60;0.60;;;;;;;5.10;70.89;100694.44;682702;28;22327;-65
2022/01/20 00:53:55;;;;;;;0.60;0.60;;;;;;;5.09;70.93;100696.22;681978;28;46766;-65
2022/01/20 00:54:16;;;;;;;0.60;0.60;;;;;;;5.08;70.86;100694.56;682722;28;22487;-66
2022/01/20 00:54:38;;;;;;;0.70;0.70;;;;;;;5.11;70.92;100690.75;685215;28;21529;-65
2022/01/20 00:55:00;;;;;;;0.80;0.80;;;;;;;5.11;70.85;100675.53;681695;28;46210;-66
2022/01/20 00:55:21;;;;;;;0.60;0.60;;;;;;;5.14;70.97;100687.78;681837;28;46300;-66
2022/01/20 00:55:42;;;;;;;0.60;0.60;;;;;;;5.16;70.67;100685.81;682628;28;23553;-66
2022/01/20 00:56:04;;;;;;;0.60;0.60;;;;;;;5.16;70.91;100707.25;682987;28;21530;-66
2022/01/20 00:56:25;;;;;;;0.60;0.60;;;;;;;5.15;70.85;100681.44;682197;28;46146;-66
2022/01/20 00:56:47;;;;;;;0.80;0.80;;;;;;;5.17;70.56;100698.19;682408;28;21367;-66
2022/01/20 00:57:08;;;;;;;0.75;0.75;;;;;;;5.16;70.57;100692.00;684715;28;46312;-68
2022/01/20 00:57:29;;;;;;;0.70;0.70;;;;;;;5.16;70.87;100696.53;685746;28;23515;-65
2022/01/20 00:57:50;;;;;;;0.70;0.70;;;;;;;5.15;70.55;100692.16;681910;28;21990;-67
2022/01/20 00:58:12;;;;;;;0.60;0.60;;;;;;;5.15;70.65;100681.44;680812;29;23486;-65
2022/01/20 00:58:33;;;;;;;0.50;0.50;;;;;;;5.18;70.78;100698.06;680824;29;44184;-65
2022/01/20 00:58:55;;;;;;;0.63;0.63;;;;;;;5.17;70.64;100696.38;680367;29;46329;-64
2022/01/20 00:59:17;;;;;;;0.82;0.82;;;;;;;5.21;70.43;100695.09;681482;29;1617;-65
2022/01/20 00:59:39;;;;;;;0.73;0.73;;;;;;;5.22;70.42;100696.81;682327;28;2383;-65
2022/01/20 01:00:00;;;;;;;0.70;0.70;;;;;;;5.21;70.41;100695.09;682465;28;44409;-65
2022/01/20 01:00:21;;;;;;;0.60;0.60;;;;;;;5.17;70.30;100685.69;681597;28;22271;-65
2022/01/20 01:00:43;;;;;;;0.60;0.60;;;;;;;5.21;70.15;100697.78;680705;28;46277;-65
2022/01/20 01:01:05;;;;;;;0.60;0.60;;;;;;;5.20;70.12;100697.91;683145;28;22424;-65
2022/01/20 01:01:26;;;;;;;0.70;0.70;;;;;;;5.19;70.35;100690.91;682575;28;46326;-66
2022/01/20 01:01:47;;;;;;;0.80;0.80;;;;;;;5.17;70.32;100693.72;682514;28;23502;-66
2022/01/20 01:02:10;;;;;;;0.70;0.70;;;;;;;5.21;70.05;100691.59;681116;29;20813;-65
2022/01/20 01:02:33;;;;;;;0.70;0.70;;;;;;;5.21;70.21;100694.25;680152;28;68737;-65
2022/01/20 01:02:56;;;;;;;0.60;0.60;;;;;;;5.15;69.95;100703.69;679771;28;69479;-66
2022/01/20 01:03:18;;;;;;;0.60;0.60;;;;;;;5.19;69.98;100693.56;678903;29;92204;-66
2022/01/20 01:03:39;;;;;;;0.70;0.70;;;;;;;5.19;70.26;100701.59;681295;28;19545;-66
2022/01/20 01:04:02;;;;;;;0.80;0.80;;;;;;;5.19;70.19;100698.94;680174;29;22410;-66
2022/01/20 01:04:24;;;;;;;0.80;0.80;;;;;;;5.13;70.22;100692.28;679716;29;33909;-66
2022/01/20 01:04:45;;;;;;;0.70;0.70;;;;;;;5.16;69.92;100700.03;679270;29;46430;-66
2022/01/20 01:05:07;;;;;;;0.60;0.60;;;;;;;5.16;69.97;100692.00;679833;29;22512;-66
2022/01/20 01:05:28;;;;;;;0.65;0.65;;;;;;;5.17;70.27;100700.88;681551;28;8969;-67
2022/01/20 01:06:02;;;;;;;0.63;0.63;;;;;;;5.18;70.10;100707.94;683496;28;24591;-65
2022/01/20 01:06:42;;;;;;;0.70;0.70;;;;;;;5.20;69.93;100680.03;683032;28;81634;-66
2022/01/20 01:07:26;;;;;;;0.70;0.70;;;;;;;5.27;69.43;100698.22;679807;28;157431;-66
2022/01/20 01:07:50;;;;;;;0.60;0.60;;;;;;;5.26;69.82;100691.16;680969;28;137596;-66
2022/01/20 01:08:11;;;;;;;0.50;0.50;;;;;;;5.24;69.64;100688.63;682903;28;93246;-66
2022/01/20 01:08:32;;;;;;;0.70;0.70;;;;;;;5.18;69.43;100684.66;686449;28;1104;-66
2022/01/20 01:08:54;;;;;;;0.80;0.80;;;;;;;5.19;69.37;100690.91;685626;28;23741;-65
2022/01/20 01:09:15;;;;;;;0.70;0.70;;;;;;;5.15;69.73;100690.31;685696;28;1144;-64
2022/01/20 01:09:39;;;;;;;0.70;0.70;;;;;;;5.23;69.82;100694.94;683133;28;1181;-66
2022/01/20 01:10:00;;;;;;;0.60;0.60;;;;;;;5.21;69.34;100688.91;681799;28;57318;-66
2022/01/20 01:10:23;;;;;;;0.60;0.60;;;;;;;5.23;69.44;100697.63;682789;28;1764;-66
2022/01/20 01:10:49;;;;;;;0.70;0.70;;;;;;;5.23;69.40;100703.00;681184;28;69344;-66
2022/01/20 01:11:10;;;;;;;0.90;0.90;;;;;;;5.22;69.23;100706.69;678380;28;138209;-66
2022/01/20 01:11:31;;;;;;;0.80;0.80;;;;;;;5.22;69.27;100698.63;685195;28;962;-65
2022/01/20 01:11:57;;;;;;;0.70;0.70;;;;;;;5.21;69.36;100702.28;685362;28;22281;-66
2022/01/20 01:12:29;;;;;;;0.60;0.60;;;;;;;5.19;69.27;100701.59;681942;28;132228;-66
2022/01/20 01:12:54;;;;;;;0.60;0.60;;;;;;;5.18;69.46;100705.25;679055;28;136537;-66
2022/01/20 01:13:17;;;;;;;0.80;0.80;;;;;;;5.18;69.30;100700.75;676903;29;113568;-66
2022/01/20 01:13:38;;;;;;;0.73;0.73;;;;;;;5.21;69.46;100710.31;679469;29;67493;-65
2022/01/20 01:14:01;;;;;;;0.60;0.60;;;;;;;5.21;69.19;100704.97;680561;29;23494;-65
2022/01/20 01:14:24;;;;;;;0.70;0.70;;;;;;;5.21;69.11;100704.97;678829;29;67266;-66
2022/01/20 01:14:49;;;;;;;0.60;0.60;;;;;;;5.18;69.00;100706.09;680061;28;69308;-66
2022/01/20 01:15:17;;;;;;;0.60;0.60;;;;;;;5.19;69.05;100704.28;677965;28;138215;-66
2022/01/20 01:15:43;;;;;;;0.80;0.80;;;;;;;5.21;68.90;100705.81;676253;28;137856;-66
2022/01/20 01:16:08;;;;;;;0.80;0.80;;;;;;;5.23;69.23;100697.63;675778;29;136975;-66
2022/01/20 01:16:41;;;;;;;0.70;0.70;;;;;;;5.24;68.88;100707.38;674424;29;115779;-66
2022/01/20 01:20:07;;;;;;;0.60;0.60;;;;;;;5.20;68.40;100709.50;675343;29;140944;-66
2022/01/20 01:20:33;;;;;;;0.70;0.70;;;;;;;5.26;68.63;100707.22;676614;29;137952;-66
2022/01/20 01:21:15;;;;;;;0.70;0.70;;;;;;;5.27;68.70;100707.06;676467;28;136444;-65
2022/01/20 01:21:43;;;;;;;0.60;0.60;;;;;;;5.24;68.27;100705.53;677026;28;137719;-65
2022/01/20 01:22:21;;;;;;;0.70;0.70;;;;;;;5.21;68.36;100711.16;677754;28;158408;-67
2022/01/20 01:22:44;;;;;;;0.70;0.70;;;;;;;5.12;68.18;100701.31;676078;29;160621;-65
2022/01/20 01:23:05;;;;;;;0.80;0.80;;;;;;;5.18;68.12;100714.13;678263;29;92197;-65
2022/01/20 01:23:28;;;;;;;0.70;0.70;;;;;;;5.18;68.28;100716.81;678049;29;23488;-65
2022/01/20 01:23:49;;;;;;;0.70;0.70;;;;;;;5.14;68.35;100696.69;673360;29;69479;-66
2022/01/20 01:24:11;;;;;;;0.70;0.70;;;;;;;5.17;68.49;100703.56;675693;29;21469;-65
2022/01/20 01:24:32;;;;;;;0.70;0.70;;;;;;;5.14;68.05;100712.75;676086;29;44355;-63
2022/01/20 01:24:55;;;;;;;0.70;0.70;;;;;;;5.14;68.36;100709.19;679175;29;21553;-65
2022/01/20 01:25:16;;;;;;;0.80;0.80;;;;;;;5.15;68.41;100711.72;678974;29;46327;-64
2022/01/20 01:25:37;;;;;;;0.70;0.70;;;;;;;5.16;68.34;100709.91;681120;28;44186;-66
2022/01/20 01:25:59;;;;;;;0.70;0.70;;;;;;;5.15;68.16;100711.72;681591;29;23412;-64
2022/01/20 01:26:24;;;;;;;0.70;0.70;;;;;;;5.16;68.49;100720.63;680939;29;45514;-65
2022/01/20 01:26:45;;;;;;;0.68;0.68;;;;;;;5.17;68.47;100711.59;677684;28;115079;-64
2022/01/20 01:27:07;;;;;;;0.70;0.70;;;;;;;5.18;68.10;100713.28;681290;28;23415;-65
2022/01/20 01:27:34;;;;;;;0.70;0.70;;;;;;;5.16;68.19;100724.13;679225;29;44382;-65
2022/01/20 01:27:56;;;;;;;0.60;0.60;;;;;;;5.16;68.40;100717.94;677782;28;138626;-66
2022/01/20 01:28:20;;;;;;;0.75;0.75;;;;;;;5.15;68.28;100710.91;679933;29;44882;-65
2022/01/20 01:28:43;;;;;;;0.80;0.80;;;;;;;5.09;68.07;100698.91;678573;29;92138;-66
2022/01/20 01:29:14;;;;;;;0.70;0.70;;;;;;;5.11;68.23;100705.00;681712;28;45283;-65
2022/01/20 01:29:55;;;;;;;0.70;0.70;;;;;;;5.14;68.31;100703.84;678992;28;159187;-65
2022/01/20 01:30:34;;;;;;;0.70;0.70;;;;;;;5.10;68.23;100716.69;679338;28;137333;-65
2022/01/20 01:31:20;;;;;;;0.80;0.80;;;;;;;5.10;68.26;100707.81;679679;28;137916;-67
2022/01/20 01:31:41;;;;;;;0.70;0.70;;;;;;;5.07;68.15;100716.97;680139;28;160667;-67
2022/01/20 01:32:05;;;;;;;0.70;0.70;;;;;;;5.06;67.91;100715.25;685555;28;46679;-68
2022/01/20 01:32:35;;;;;;;0.60;0.60;;;;;;;5.05;68.14;100711.75;684478;28;67964;-66
2022/01/20 01:32:57;;;;;;;0.80;0.80;;;;;;;5.04;68.06;100707.38;682024;28;136444;-67
2022/01/20 01:33:20;;;;;;;0.80;0.80;;;;;;;5.06;68.21;100720.63;681914;28;45275;-64
2022/01/20 01:33:51;;;;;;;0.70;0.70;;;;;;;5.07;68.32;100718.81;682523;28;44383;-65
2022/01/20 01:34:14;;;;;;;0.68;0.68;;;;;;;5.05;67.86;100717.09;676575;29;137720;-67
2022/01/20 01:34:39;;;;;;;0.60;0.60;;;;;;;5.07;68.34;100708.09;676494;29;69654;-67
2022/01/20 01:35:04;;;;;;;0.60;0.60;;;;;;;5.09;68.29;100703.44;676316;29;92327;-65
2022/01/20 01:35:27;;;;;;;0.80;0.80;;;;;;;5.09;68.22;100704.25;674004;29;138783;-67
2022/01/20 01:35:55;;;;;;;0.80;0.80;;;;;;;5.08;68.04;100710.63;676698;29;69168;-65
2022/01/20 01:36:19;;;;;;;0.65;0.65;;;;;;;5.08;67.90;100715.97;676214;29;137888;-65
2022/01/20 01:36:49;;;;;;;0.50;0.50;;;;;;;5.05;67.70;100711.75;680695;28;92382;-68
2022/01/20 01:37:35;;;;;;;0.52;0.52;;;;;;;5.07;67.61;100716.97;676717;29;138375;-67
2022/01/20 01:38:38;;;;;;;0.70;0.70;;;;;;;5.08;67.68;100707.94;677944;28;160662;-65
2022/01/20 01:38:59;;;;;;;0.70;0.70;;;;;;;5.07;67.37;100711.59;681596;28;92142;-68
2022/01/20 01:39:23;;;;;;;0.60;0.60;;;;;;;5.09;67.42;100711.47;684077;28;70195;-67
2022/01/20 01:39:44;;;;;;;0.65;0.65;;;;;;;5.08;67.29;100715.97;680811;29;1984;-68
2022/01/20 01:40:08;;;;;;;0.80;0.80;;;;;;;5.08;67.42;100720.47;680539;29;24413;-65
2022/01/20 01:40:29;;;;;;;0.70;0.70;;;;;;;5.08;67.31;100715.13;675861;29;92865;-67
2022/01/20 01:40:51;;;;;;;0.70;0.70;;;;;;;5.08;67.35;100704.41;677041;29;42985;-67
2022/01/20 01:41:16;;;;;;;0.68;0.68;;;;;;;5.08;67.10;100729.38;677072;29;47375;-66
2022/01/20 01:41:38;;;;;;;0.60;0.60;;;;;;;5.14;67.48;100709.19;675356;29;92348;-68
2022/01/20 01:41:59;;;;;;;0.60;0.60;;;;;;;5.13;67.09;100723.59;679541;28;59860;-67
2022/01/20 01:42:27;;;;;;;0.77;0.77;;;;;;;5.11;67.02;100722.88;680953;29;22353;-67
2022/01/20 01:42:51;;;;;;;0.70;0.70;;;;;;;5.10;66.87;100742.63;676445;29;138462;-67
2022/01/20 01:43:18;;;;;;;0.70;0.70;;;;;;;5.08;66.99;100732.03;679224;29;69446;-67
2022/01/20 01:43:44;;;;;;;0.60;0.60;;;;;;;5.07;66.96;100719.63;679627;28;137867;-68
2022/01/20 01:44:08;;;;;;;0.50;0.50;;;;;;;5.05;66.88;100722.47;680808;28;113624;-68
2022/01/20 01:44:30;;;;;;;0.60;0.60;;;;;;;5.05;67.07;100726.97;681975;28;116059;-66
2022/01/20 01:44:55;;;;;;;0.70;0.70;;;;;;;5.02;66.93;100725.41;680152;28;115945;-67
2022/01/20 01:45:21;;;;;;;0.70;0.70;;;;;;;5.02;66.86;100735.28;681252;28;68385;-65
2022/01/20 01:45:42;;;;;;;0.60;0.60;;;;;;;5.01;66.77;100736.25;677192;29;115192;-67
2022/01/20 01:46:08;;;;;;;0.50;0.50;;;;;;;5.01;66.80;100721.03;676381;29;138028;-67
2022/01/20 01:46:33;;;;;;;0.50;0.50;;;;;;;5.01;66.83;100734.41;679527;29;54312;-66
2022/01/20 01:46:56;;;;;;;0.60;0.60;;;;;;;5.02;66.98;100735.28;678080;28;69558;-66
2022/01/20 01:47:17;;;;;;;0.70;0.70;;;;;;;5.02;66.68;100732.59;679499;29;45309;-65
2022/01/20 01:47:39;;;;;;;0.70;0.70;;;;;;;5.02;66.60;100730.78;679531;29;44393;-67
2022/01/20 01:48:01;;;;;;;0.60;0.60;;;;;;;5.01;66.73;100745.13;679099;29;23439;-67
2022/01/20 01:48:23;;;;;;;0.60;0.60;;;;;;;5.04;66.67;100734.13;679071;29;67539;-65
2022/01/20 01:48:44;;;;;;;0.50;0.50;;;;;;;5.01;66.73;100739.78;680967;28;23542;-66
2022/01/20 01:49:07;;;;;;;0.60;0.60;;;;;;;4.99;66.67;100723.03;681921;28;45257;-67
2022/01/20 01:49:28;;;;;;;0.73;0.73;;;;;;;5.00;66.85;100740.78;682547;28;45285;-67
2022/01/20 01:49:49;;;;;;;0.70;0.70;;;;;;;4.99;66.68;100736.41;680511;28;47379;-67
2022/01/20 01:50:12;;;;;;;0.60;0.60;;;;;;;5.00;66.33;100740.78;680301;29;23463;-67
2022/01/20 01:50:33;;;;;;;0.60;0.60;;;;;;;4.99;66.67;100730.22;677522;29;44443;-67
2022/01/20 01:50:55;;;;;;;0.50;0.50;;;;;;;4.99;66.62;100731.03;678221;29;21548;-66
2022/01/20 01:51:17;;;;;;;0.52;0.52;;;;;;;4.96;66.55;100725.97;676235;29;69229;-67
2022/01/20 01:51:41;;;;;;;0.70;0.70;;;;;;;4.98;66.39;100736.53;675988;29;92287;-68
2022/01/20 01:52:02;;;;;;;0.70;0.70;;;;;;;4.97;66.47;100740.19;680799;29;23510;-67
2022/01/20 01:52:25;;;;;;;0.60;0.60;;;;;;;4.97;66.38;100732.16;680633;29;47461;-68
2022/01/20 01:52:46;;;;;;;0.60;0.60;;;;;;;4.99;66.47;100724.84;680036;29;46332;-67
2022/01/20 01:53:09;;;;;;;0.60;0.60;;;;;;;4.97;66.37;100725.00;681491;28;21537;-67
2022/01/20 01:53:30;;;;;;;0.50;0.50;;;;;;;4.97;66.17;100732.16;680053;28;69445;-68
2022/01/20 01:53:52;;;;;;;0.70;0.70;;;;;;;4.93;66.53;100736.97;680996;29;23489;-65
2022/01/20 01:54:17;;;;;;;0.80;0.80;;;;;;;4.93;66.46;100730.78;677735;29;136441;-67
2022/01/20 01:54:38;;;;;;;0.70;0.70;;;;;;;4.92;66.25;100729.06;679983;29;22383;-67
2022/01/20 01:54:59;;;;;;;0.70;0.70;;;;;;;4.89;66.23;100724.88;680264;29;23474;-67
2022/01/20 01:55:21;;;;;;;0.68;0.68;;;;;;;4.87;66.41;100729.50;677484;29;22442;-68
2022/01/20 01:55:43;;;;;;;0.60;0.60;;;;;;;4.86;66.35;100730.50;680990;28;46309;-68
2022/01/20 01:56:05;;;;;;;0.70;0.70;;;;;;;4.86;66.16;100719.78;680827;29;46324;-68
2022/01/20 01:56:27;;;;;;;0.88;0.88;;;;;;;4.85;66.35;100726.94;678353;28;69407;-67
2022/01/20 01:56:50;;;;;;;0.73;0.73;;;;;;;4.85;66.55;100729.63;680282;28;23495;-64
2022/01/20 01:57:16;;;;;;;0.63;0.63;;;;;;;4.85;66.47;100720.78;678389;28;136461;-67
2022/01/20 01:57:37;;;;;;;0.60;0.60;;;;;;;4.81;66.55;100719.34;682017;28;46322;-65
2022/01/20 01:57:59;;;;;;;0.60;0.60;;;;;;;4.83;66.51;100717.41;682779;28;21417;-68
2022/01/20 01:58:20;;;;;;;0.60;0.60;;;;;;;4.83;66.53;100733.44;679557;29;46468;-67
2022/01/20 01:58:56;;;;;;;0.75;0.75;;;;;;;4.83;66.49;100725.44;673280;29;160613;-64
2022/01/20 01:59:36;;;;;;;0.70;0.70;;;;;;;4.86;66.49;100722.47;676888;29;137721;-67
2022/01/20 02:00:31;;;;;;;0.60;0.60;;;;;;;4.86;66.26;100719.78;676645;29;137469;-67
2022/01/20 02:00:57;;;;;;;0.70;0.70;;;;;;;4.85;66.19;100720.78;676201;29;136462;-67
2022/01/20 02:01:19;;;;;;;0.80;0.80;;;;;;;4.84;66.03;100719.94;679043;29;44360;-67
2022/01/20 02:01:41;;;;;;;0.70;0.70;;;;;;;4.85;66.21;100724.28;677587;29;23405;-68
2022/01/20 02:02:03;;;;;;;0.70;0.70;;;;;;;4.85;65.88;100728.78;679417;29;69273;-67
2022/01/20 02:02:27;;;;;;;0.70;0.70;;;;;;;4.86;65.38;100723.31;681665;28;66923;-67
2022/01/20 02:02:48;;;;;;;0.70;0.70;;;;;;;4.86;66.00;100717.13;681832;28;46552;-68
2022/01/20 02:03:16;;;;;;;0.70;0.70;;;;;;;4.84;65.63;100719.94;675439;29;137927;-65
2022/01/20 02:03:57;;;;;;;0.80;0.80;;;;;;;4.82;65.26;100721.03;676452;29;136172;-65
2022/01/20 02:04:22;;;;;;;0.70;0.70;;;;;;;4.81;65.77;100719.34;673029;29;138289;-67
2022/01/20 02:05:04;;;;;;;0.70;0.70;;;;;;;4.78;65.34;100724.97;673786;29;160519;-67
2022/01/20 02:06:04;;;;;;;0.75;0.75;;;;;;;4.80;65.46;100723.03;678487;28;137448;-67
2022/01/20 02:06:49;;;;;;;0.90;0.90;;;;;;;4.78;65.21;100720.50;682556;28;137688;-68
2022/01/20 02:07:38;;;;;;;0.68;0.68;;;;;;;4.79;65.21;100722.16;676774;28;180099;-67
2022/01/20 02:08:50;;;;;;;0.80;0.80;;;;;;;4.79;64.94;100724.00;678733;28;137690;-66
2022/01/20 02:09:25;;;;;;;0.77;0.77;;;;;;;4.79;65.29;100718.66;678808;28;137571;-68
2022/01/20 02:18:23;;;;;;;0.70;0.70;;;;;;;4.76;64.33;100729.63;674796;29;135748;-67
2022/01/20 02:18:48;;;;;;;0.60;0.60;;;;;;;4.79;64.35;100724.00;674961;29;137501;-68
2022/01/20 02:19:28;;;;;;;0.50;0.50;;;;;;;4.79;64.01;100721.31;673957;29;137474;-66
2022/01/20 02:20:19;;;;;;;0.80;0.80;;;;;;;4.73;64.00;100719.22;674686;29;137739;-65
2022/01/20 02:20:51;;;;;;;0.70;0.70;;;;;;;4.74;63.60;100721.75;677923;28;135999;-67
2022/01/20 02:21:12;;;;;;;0.70;0.70;;;;;;;4.74;63.52;100729.78;680934;29;46959;-65
2022/01/20 02:21:36;;;;;;;0.60;0.60;;;;;;;4.73;63.62;100725.41;683386;28;23675;-68
2022/01/20 02:22:02;;;;;;;0.50;0.50;;;;;;;4.75;63.66;100719.91;655419;28;112843;-64
2022/01/20 02:22:27;;;;;;;0.73;0.73;;;;;;;4.73;63.38;100721.88;678450;28;161495;-67
2022/01/20 02:23:07;;;;;;;0.70;0.70;;;;;;;4.71;63.34;100727.38;676990;28;137479;-68
2022/01/20 02:23:29;;;;;;;0.60;0.60;;;;;;;4.67;63.35;100728.63;680414;29;21178;-67
2022/01/20 02:23:50;;;;;;;0.63;0.63;;;;;;;4.69;63.33;100730.19;679437;29;44353;-67
2022/01/20 02:24:11;;;;;;;0.57;0.57;;;;;;;4.68;63.28;100733.00;679256;28;46419;-67
2022/01/20 02:24:34;;;;;;;0.70;0.70;;;;;;;4.66;63.33;100730.47;683273;28;23725;-67
2022/01/20 02:24:55;;;;;;;0.80;0.80;;;;;;;4.67;63.33;100739.31;682396;28;45266;-67
2022/01/20 02:25:20;;;;;;;0.80;0.80;;;;;;;4.67;63.18;100737.50;683334;28;21535;-66
2022/01/20 02:25:41;;;;;;;0.60;0.60;;;;;;;4.68;63.08;100727.66;679341;28;138275;-68
2022/01/20 02:26:02;;;;;;;0.60;0.60;;;;;;;4.68;63.12;100733.00;679998;28;44494;-67
2022/01/20 02:26:25;;;;;;;0.60;0.60;;;;;;;4.67;62.93;100728.63;680776;28;23495;-67
2022/01/20 02:26:46;;;;;;;0.60;0.60;;;;;;;4.67;63.08;100731.31;677669;29;46354;-65
2022/01/20 02:27:13;;;;;;;0.70;0.70;;;;;;;4.64;62.97;100724.41;676426;29;138439;-65
2022/01/20 02:27:44;;;;;;;0.63;0.63;;;;;;;4.66;63.25;100725.13;676512;29;60226;-67
2022/01/20 02:28:08;;;;;;;0.60;0.60;;;;;;;4.66;63.43;100733.13;677399;29;22411;-67
2022/01/20 02:28:30;;;;;;;0.52;0.52;;;;;;;4.66;62.84;100740.34;674049;29;138404;-66
2022/01/20 02:28:51;;;;;;;0.60;0.60;;;;;;;4.67;62.95;100728.63;678503;29;22204;-67
2022/01/20 02:29:16;;;;;;;0.52;0.52;;;;;;;4.67;62.97;100733.97;676000;29;67398;-68
2022/01/20 02:29:38;;;;;;;0.60;0.60;;;;;;;4.66;62.59;100730.47;675810;29;69469;-65
2022/01/20 02:29:59;;;;;;;0.60;0.60;;;;;;;4.64;62.67;100735.13;675857;29;24331;-66
2022/01/20 02:30:23;;;;;;;0.60;0.60;;;;;;;4.63;62.75;100725.38;677786;29;22410;-67
2022/01/20 02:30:44;;;;;;;0.50;0.50;;;;;;;4.66;62.78;100741.16;672993;29;115217;-65
2022/01/20 02:31:07;;;;;;;0.50;0.50;;;;;;;4.65;62.56;100733.28;674498;29;23368;-64
2022/01/20 02:31:28;;;;;;;0.50;0.50;;;;;;;4.64;62.53;100734.25;672687;29;46346;-65